sensor_id;sensor_type;location;lat;lon;timestamp;P1;durP1;ratioP1;P2;durP2;ratioP2
55216;SDS011;41086;46.736;15.666;2023-01-26T00:01:18;139.45;;;41.60;;
55216;SDS011;41086;46.736;15.666;2023-01-26T00:03:49;144.95;;;39.50;;
55216;SDS011;41086;46.736;15.666;2023-01-26T00:06:17;175.48;;;39.88;;
55216;SDS011;41086;46.736;15.666;2023-01-26T00:08:45;148.65;;;41.67;;
55216;SDS011;41086;46.736;15.666;2023-01-26T00:11:15;125.13;;;39.83;;
55216;SDS011;41086;46.736;15.666;2023-01-26T00:13:43;185.57;;;45.58;;
55216;SDS011;41086;46.736;15.666;2023-01-26T00:16:11;134.55;;;40.65;;
55216;SDS011;41086;46.736;15.666;2023-01-26T00:18:39;126.40;;;39.45;;
55216;SDS011;41086;46.736;15.666;2023-01-26T00:21:07;138.77;;;39.13;;
55216;SDS011;41086;46.736;15.666;2023-01-26T00:23:38;136.63;;;41.95;;
55216;SDS011;41086;46.736;15.666;2023-01-26T00:26:05;184.07;;;45.95;;
55216;SDS011;41086;46.736;15.666;2023-01-26T00:28:32;247.70;;;53.03;;
55216;SDS011;41086;46.736;15.666;2023-01-26T00:31:03;185.43;;;44.72;;
55216;SDS011;41086;46.736;15.666;2023-01-26T00:33:31;147.25;;;43.00;;
55216;SDS011;41086;46.736;15.666;2023-01-26T00:35:59;185.55;;;48.20;;
55216;SDS011;41086;46.736;15.666;2023-01-26T00:38:25;206.10;;;49.00;;
55216;SDS011;41086;46.736;15.666;2023-01-26T00:40:52;198.50;;;48.13;;
55216;SDS011;41086;46.736;15.666;2023-01-26T00:43:19;283.63;;;54.63;;
55216;SDS011;41086;46.736;15.666;2023-01-26T00:45:46;154.15;;;41.83;;
55216;SDS011;41086;46.736;15.666;2023-01-26T00:48:13;127.75;;;37.88;;
55216;SDS011;41086;46.736;15.666;2023-01-26T00:50:40;137.30;;;41.10;;
55216;SDS011;41086;46.736;15.666;2023-01-26T00:55:35;108.13;;;35.70;;
55216;SDS011;41086;46.736;15.666;2023-01-26T00:58:02;139.68;;;40.15;;
55216;SDS011;41086;46.736;15.666;2023-01-26T01:00:31;100.85;;;33.05;;
55216;SDS011;41086;46.736;15.666;2023-01-26T01:02:59;102.28;;;34.25;;
55216;SDS011;41086;46.736;15.666;2023-01-26T01:05:26;125.50;;;37.97;;
55216;SDS011;41086;46.736;15.666;2023-01-26T01:07:54;109.22;;;35.40;;
55216;SDS011;41086;46.736;15.666;2023-01-26T01:10:22;112.45;;;37.00;;
55216;SDS011;41086;46.736;15.666;2023-01-26T01:12:51;124.03;;;38.22;;
55216;SDS011;41086;46.736;15.666;2023-01-26T01:15:18;138.40;;;38.97;;
55216;SDS011;41086;46.736;15.666;2023-01-26T01:17:44;115.28;;;37.25;;
55216;SDS011;41086;46.736;15.666;2023-01-26T01:20:11;106.82;;;36.20;;
55216;SDS011;41086;46.736;15.666;2023-01-26T01:22:40;153.02;;;39.75;;
55216;SDS011;41086;46.736;15.666;2023-01-26T01:25:07;129.15;;;37.92;;
55216;SDS011;41086;46.736;15.666;2023-01-26T01:27:34;137.88;;;39.90;;
55216;SDS011;41086;46.736;15.666;2023-01-26T01:30:00;130.77;;;42.33;;
55216;SDS011;41086;46.736;15.666;2023-01-26T01:32:35;156.23;;;41.47;;
55216;SDS011;41086;46.736;15.666;2023-01-26T01:35:04;202.65;;;45.53;;
55216;SDS011;41086;46.736;15.666;2023-01-26T01:37:31;154.32;;;41.67;;
55216;SDS011;41086;46.736;15.666;2023-01-26T01:39:58;107.28;;;35.65;;
55216;SDS011;41086;46.736;15.666;2023-01-26T01:42:25;155.07;;;41.88;;
55216;SDS011;41086;46.736;15.666;2023-01-26T01:47:58;261.55;;;50.10;;
55216;SDS011;41086;46.736;15.666;2023-01-26T01:50:35;120.32;;;34.72;;
55216;SDS011;41086;46.736;15.666;2023-01-26T01:53:05;134.90;;;38.67;;
55216;SDS011;41086;46.736;15.666;2023-01-26T01:55:35;194.20;;;41.25;;
55216;SDS011;41086;46.736;15.666;2023-01-26T01:58:02;134.73;;;40.33;;
55216;SDS011;41086;46.736;15.666;2023-01-26T02:00:31;132.07;;;37.08;;
55216;SDS011;41086;46.736;15.666;2023-01-26T02:02:59;163.57;;;41.75;;
55216;SDS011;41086;46.736;15.666;2023-01-26T02:08:23;125.45;;;37.10;;
55216;SDS011;41086;46.736;15.666;2023-01-26T02:10:53;125.05;;;37.70;;
55216;SDS011;41086;46.736;15.666;2023-01-26T02:13:25;120.13;;;38.00;;
55216;SDS011;41086;46.736;15.666;2023-01-26T02:15:52;139.73;;;38.67;;
55216;SDS011;41086;46.736;15.666;2023-01-26T02:18:20;134.88;;;39.67;;
55216;SDS011;41086;46.736;15.666;2023-01-26T02:20:55;118.18;;;35.58;;
55216;SDS011;41086;46.736;15.666;2023-01-26T02:26:05;119.22;;;36.28;;
55216;SDS011;41086;46.736;15.666;2023-01-26T02:28:34;124.35;;;38.03;;
55216;SDS011;41086;46.736;15.666;2023-01-26T02:31:01;120.90;;;36.90;;
55216;SDS011;41086;46.736;15.666;2023-01-26T02:33:30;123.72;;;38.42;;
55216;SDS011;41086;46.736;15.666;2023-01-26T02:36:00;146.43;;;39.10;;
55216;SDS011;41086;46.736;15.666;2023-01-26T02:38:31;120.43;;;35.28;;
55216;SDS011;41086;46.736;15.666;2023-01-26T02:41:05;113.18;;;34.67;;
55216;SDS011;41086;46.736;15.666;2023-01-26T02:43:35;127.82;;;37.00;;
55216;SDS011;41086;46.736;15.666;2023-01-26T02:46:02;135.38;;;38.55;;
55216;SDS011;41086;46.736;15.666;2023-01-26T02:48:34;107.75;;;34.00;;
55216;SDS011;41086;46.736;15.666;2023-01-26T02:51:20;122.78;;;35.55;;
55216;SDS011;41086;46.736;15.666;2023-01-26T02:56:14;132.18;;;35.22;;
55216;SDS011;41086;46.736;15.666;2023-01-26T02:58:40;99.60;;;34.38;;
55216;SDS011;41086;46.736;15.666;2023-01-26T03:01:08;110.03;;;35.60;;
55216;SDS011;41086;46.736;15.666;2023-01-26T03:03:45;115.55;;;36.50;;
55216;SDS011;41086;46.736;15.666;2023-01-26T03:06:12;129.50;;;37.22;;
55216;SDS011;41086;46.736;15.666;2023-01-26T03:08:40;188.05;;;42.45;;
55216;SDS011;41086;46.736;15.666;2023-01-26T03:11:07;147.43;;;37.97;;
55216;SDS011;41086;46.736;15.666;2023-01-26T03:13:35;132.27;;;37.20;;
55216;SDS011;41086;46.736;15.666;2023-01-26T03:16:05;331.77;;;55.35;;
55216;SDS011;41086;46.736;15.666;2023-01-26T03:18:33;210.50;;;45.55;;
55216;SDS011;41086;46.736;15.666;2023-01-26T03:21:22;110.15;;;33.95;;
55216;SDS011;41086;46.736;15.666;2023-01-26T03:24:10;139.88;;;36.40;;
55216;SDS011;41086;46.736;15.666;2023-01-26T03:26:58;115.70;;;35.55;;
55216;SDS011;41086;46.736;15.666;2023-01-26T03:29:44;149.88;;;37.42;;
55216;SDS011;41086;46.736;15.666;2023-01-26T03:32:11;146.80;;;41.22;;
55216;SDS011;41086;46.736;15.666;2023-01-26T03:34:40;153.27;;;37.30;;
55216;SDS011;41086;46.736;15.666;2023-01-26T03:37:07;129.65;;;34.45;;
55216;SDS011;41086;46.736;15.666;2023-01-26T03:39:51;111.95;;;37.75;;
55216;SDS011;41086;46.736;15.666;2023-01-26T03:42:38;103.75;;;33.28;;
55216;SDS011;41086;46.736;15.666;2023-01-26T03:45:26;104.43;;;36.03;;
55216;SDS011;41086;46.736;15.666;2023-01-26T03:48:11;111.78;;;36.28;;
55216;SDS011;41086;46.736;15.666;2023-01-26T03:50:58;122.15;;;36.05;;
55216;SDS011;41086;46.736;15.666;2023-01-26T03:53:44;104.88;;;34.53;;
55216;SDS011;41086;46.736;15.666;2023-01-26T03:56:29;98.45;;;32.10;;
55216;SDS011;41086;46.736;15.666;2023-01-26T03:59:11;106.40;;;32.80;;
55216;SDS011;41086;46.736;15.666;2023-01-26T04:01:43;102.95;;;34.85;;
55216;SDS011;41086;46.736;15.666;2023-01-26T04:04:31;105.05;;;34.45;;
55216;SDS011;41086;46.736;15.666;2023-01-26T04:07:18;97.90;;;34.72;;
55216;SDS011;41086;46.736;15.666;2023-01-26T04:10:04;159.80;;;40.28;;
55216;SDS011;41086;46.736;15.666;2023-01-26T04:12:32;86.53;;;32.80;;
55216;SDS011;41086;46.736;15.666;2023-01-26T04:15:13;107.50;;;36.67;;
55216;SDS011;41086;46.736;15.666;2023-01-26T04:18:04;128.05;;;36.13;;
55216;SDS011;41086;46.736;15.666;2023-01-26T04:20:50;128.07;;;35.38;;
55216;SDS011;41086;46.736;15.666;2023-01-26T04:23:38;142.90;;;39.47;;
55216;SDS011;41086;46.736;15.666;2023-01-26T04:26:05;106.90;;;33.65;;
55216;SDS011;41086;46.736;15.666;2023-01-26T04:28:32;101.22;;;35.42;;
55216;SDS011;41086;46.736;15.666;2023-01-26T04:31:01;90.88;;;32.80;;
55216;SDS011;41086;46.736;15.666;2023-01-26T04:33:33;91.80;;;31.05;;
55216;SDS011;41086;46.736;15.666;2023-01-26T04:36:04;123.00;;;36.60;;
55216;SDS011;41086;46.736;15.666;2023-01-26T04:38:34;127.35;;;35.50;;
55216;SDS011;41086;46.736;15.666;2023-01-26T04:41:01;138.13;;;37.55;;
55216;SDS011;41086;46.736;15.666;2023-01-26T04:43:30;140.13;;;37.83;;
55216;SDS011;41086;46.736;15.666;2023-01-26T04:48:27;139.15;;;38.00;;
55216;SDS011;41086;46.736;15.666;2023-01-26T04:50:55;139.73;;;37.90;;
55216;SDS011;41086;46.736;15.666;2023-01-26T04:53:23;145.27;;;37.25;;
55216;SDS011;41086;46.736;15.666;2023-01-26T04:55:50;126.35;;;36.47;;
55216;SDS011;41086;46.736;15.666;2023-01-26T04:58:17;139.93;;;36.53;;
55216;SDS011;41086;46.736;15.666;2023-01-26T05:00:54;121.75;;;36.75;;
55216;SDS011;41086;46.736;15.666;2023-01-26T05:03:24;113.47;;;34.33;;
55216;SDS011;41086;46.736;15.666;2023-01-26T05:05:53;96.05;;;33.17;;
55216;SDS011;41086;46.736;15.666;2023-01-26T05:08:22;106.90;;;32.75;;
55216;SDS011;41086;46.736;15.666;2023-01-26T05:10:49;106.93;;;32.83;;
55216;SDS011;41086;46.736;15.666;2023-01-26T05:13:21;103.25;;;34.25;;
55216;SDS011;41086;46.736;15.666;2023-01-26T05:16:01;93.82;;;32.22;;
55216;SDS011;41086;46.736;15.666;2023-01-26T05:18:58;168.65;;;40.00;;
55216;SDS011;41086;46.736;15.666;2023-01-26T05:21:45;102.05;;;31.45;;
55216;SDS011;41086;46.736;15.666;2023-01-26T05:24:12;99.25;;;31.88;;
55216;SDS011;41086;46.736;15.666;2023-01-26T05:26:59;118.70;;;33.78;;
55216;SDS011;41086;46.736;15.666;2023-01-26T05:32:15;122.97;;;35.60;;
55216;SDS011;41086;46.736;15.666;2023-01-26T05:37:09;104.50;;;32.88;;
55216;SDS011;41086;46.736;15.666;2023-01-26T05:39:42;112.43;;;32.95;;
55216;SDS011;41086;46.736;15.666;2023-01-26T05:42:10;112.35;;;34.42;;
55216;SDS011;41086;46.736;15.666;2023-01-26T05:44:58;109.07;;;33.60;;
55216;SDS011;41086;46.736;15.666;2023-01-26T05:47:28;86.80;;;31.35;;
55216;SDS011;41086;46.736;15.666;2023-01-26T05:49:56;107.30;;;35.08;;
55216;SDS011;41086;46.736;15.666;2023-01-26T05:52:26;237.80;;;88.88;;
55216;SDS011;41086;46.736;15.666;2023-01-26T05:54:53;97.75;;;34.80;;
55216;SDS011;41086;46.736;15.666;2023-01-26T05:57:21;119.25;;;36.40;;
55216;SDS011;41086;46.736;15.666;2023-01-26T05:59:52;128.13;;;34.60;;
55216;SDS011;41086;46.736;15.666;2023-01-26T06:02:20;114.90;;;32.83;;
55216;SDS011;41086;46.736;15.666;2023-01-26T06:07:14;138.43;;;35.60;;
55216;SDS011;41086;46.736;15.666;2023-01-26T06:09:46;97.15;;;31.52;;
55216;SDS011;41086;46.736;15.666;2023-01-26T06:12:20;106.93;;;33.97;;
55216;SDS011;41086;46.736;15.666;2023-01-26T06:15:00;101.10;;;32.67;;
55216;SDS011;41086;46.736;15.666;2023-01-26T06:17:35;118.95;;;36.17;;
55216;SDS011;41086;46.736;15.666;2023-01-26T06:20:05;100.80;;;34.97;;
55216;SDS011;41086;46.736;15.666;2023-01-26T06:22:34;119.78;;;36.85;;
55216;SDS011;41086;46.736;15.666;2023-01-26T06:25:01;123.28;;;34.97;;
55216;SDS011;41086;46.736;15.666;2023-01-26T06:27:28;111.95;;;34.88;;
55216;SDS011;41086;46.736;15.666;2023-01-26T06:29:57;107.82;;;34.72;;
55216;SDS011;41086;46.736;15.666;2023-01-26T06:32:25;102.22;;;34.13;;
55216;SDS011;41086;46.736;15.666;2023-01-26T06:34:53;110.38;;;35.63;;
55216;SDS011;41086;46.736;15.666;2023-01-26T06:37:22;98.05;;;34.17;;
55216;SDS011;41086;46.736;15.666;2023-01-26T06:39:52;109.63;;;33.80;;
55216;SDS011;41086;46.736;15.666;2023-01-26T06:42:19;106.65;;;33.92;;
55216;SDS011;41086;46.736;15.666;2023-01-26T06:44:46;111.30;;;34.95;;
55216;SDS011;41086;46.736;15.666;2023-01-26T06:47:13;117.25;;;32.63;;
55216;SDS011;41086;46.736;15.666;2023-01-26T06:49:40;106.28;;;31.92;;
55216;SDS011;41086;46.736;15.666;2023-01-26T06:58:01;98.28;;;30.42;;
55216;SDS011;41086;46.736;15.666;2023-01-26T07:00:54;114.90;;;35.53;;
55216;SDS011;41086;46.736;15.666;2023-01-26T07:03:31;101.65;;;31.35;;
55216;SDS011;41086;46.736;15.666;2023-01-26T07:05:58;119.15;;;33.75;;
55216;SDS011;41086;46.736;15.666;2023-01-26T07:08:25;126.05;;;35.35;;
55216;SDS011;41086;46.736;15.666;2023-01-26T07:10:52;133.35;;;38.25;;
55216;SDS011;41086;46.736;15.666;2023-01-26T07:13:18;129.75;;;35.35;;
55216;SDS011;41086;46.736;15.666;2023-01-26T07:15:45;131.52;;;36.92;;
55216;SDS011;41086;46.736;15.666;2023-01-26T07:18:13;102.18;;;31.77;;
55216;SDS011;41086;46.736;15.666;2023-01-26T07:20:40;104.97;;;34.63;;
55216;SDS011;41086;46.736;15.666;2023-01-26T07:23:07;114.22;;;34.35;;
55216;SDS011;41086;46.736;15.666;2023-01-26T07:25:34;111.05;;;34.65;;
55216;SDS011;41086;46.736;15.666;2023-01-26T07:28:01;114.35;;;36.28;;
55216;SDS011;41086;46.736;15.666;2023-01-26T07:30:27;130.15;;;36.63;;
55216;SDS011;41086;46.736;15.666;2023-01-26T07:32:54;124.72;;;36.20;;
55216;SDS011;41086;46.736;15.666;2023-01-26T07:35:25;123.65;;;35.55;;
55216;SDS011;41086;46.736;15.666;2023-01-26T07:37:52;97.55;;;32.65;;
55216;SDS011;41086;46.736;15.666;2023-01-26T07:40:20;107.97;;;34.63;;
55216;SDS011;41086;46.736;15.666;2023-01-26T07:42:47;133.65;;;35.00;;
55216;SDS011;41086;46.736;15.666;2023-01-26T07:45:18;125.40;;;33.10;;
55216;SDS011;41086;46.736;15.666;2023-01-26T07:47:45;105.72;;;33.40;;
55216;SDS011;41086;46.736;15.666;2023-01-26T07:52:40;98.18;;;31.88;;
55216;SDS011;41086;46.736;15.666;2023-01-26T07:55:07;105.60;;;31.33;;
55216;SDS011;41086;46.736;15.666;2023-01-26T07:57:33;104.93;;;33.33;;
55216;SDS011;41086;46.736;15.666;2023-01-26T08:00:00;113.50;;;34.88;;
55216;SDS011;41086;46.736;15.666;2023-01-26T08:02:37;91.20;;;32.25;;
55216;SDS011;41086;46.736;15.666;2023-01-26T08:05:03;109.57;;;33.80;;
55216;SDS011;41086;46.736;15.666;2023-01-26T08:07:31;97.97;;;35.22;;
55216;SDS011;41086;46.736;15.666;2023-01-26T08:09:58;108.72;;;30.98;;
55216;SDS011;41086;46.736;15.666;2023-01-26T08:12:25;108.68;;;32.15;;
55216;SDS011;41086;46.736;15.666;2023-01-26T08:17:19;96.32;;;31.75;;
55216;SDS011;41086;46.736;15.666;2023-01-26T08:19:45;99.30;;;31.40;;
55216;SDS011;41086;46.736;15.666;2023-01-26T08:22:12;106.07;;;32.30;;
55216;SDS011;41086;46.736;15.666;2023-01-26T08:24:39;101.20;;;31.55;;
55216;SDS011;41086;46.736;15.666;2023-01-26T08:27:06;99.85;;;31.77;;
55216;SDS011;41086;46.736;15.666;2023-01-26T08:29:33;89.30;;;30.10;;
55216;SDS011;41086;46.736;15.666;2023-01-26T08:31:59;83.40;;;29.70;;
55216;SDS011;41086;46.736;15.666;2023-01-26T08:34:26;91.07;;;29.95;;
55216;SDS011;41086;46.736;15.666;2023-01-26T08:36:53;88.05;;;31.05;;
55216;SDS011;41086;46.736;15.666;2023-01-26T08:39:20;83.80;;;30.85;;
55216;SDS011;41086;46.736;15.666;2023-01-26T08:41:46;88.85;;;29.92;;
55216;SDS011;41086;46.736;15.666;2023-01-26T08:44:13;95.50;;;29.75;;
55216;SDS011;41086;46.736;15.666;2023-01-26T08:46:42;79.93;;;27.70;;
55216;SDS011;41086;46.736;15.666;2023-01-26T08:49:09;81.65;;;30.40;;
55216;SDS011;41086;46.736;15.666;2023-01-26T08:51:36;87.78;;;31.33;;
55216;SDS011;41086;46.736;15.666;2023-01-26T08:54:05;68.18;;;29.13;;
55216;SDS011;41086;46.736;15.666;2023-01-26T08:56:36;88.53;;;29.52;;
55216;SDS011;41086;46.736;15.666;2023-01-26T08:59:02;76.32;;;28.15;;
55216;SDS011;41086;46.736;15.666;2023-01-26T09:01:29;79.38;;;29.25;;
55216;SDS011;41086;46.736;15.666;2023-01-26T09:03:56;64.68;;;26.98;;
55216;SDS011;41086;46.736;15.666;2023-01-26T09:08:50;73.63;;;28.27;;
55216;SDS011;41086;46.736;15.666;2023-01-26T09:11:17;78.15;;;26.75;;
55216;SDS011;41086;46.736;15.666;2023-01-26T09:13:44;79.78;;;28.08;;
55216;SDS011;41086;46.736;15.666;2023-01-26T09:16:21;70.28;;;27.38;;
55216;SDS011;41086;46.736;15.666;2023-01-26T09:18:50;68.45;;;26.73;;
55216;SDS011;41086;46.736;15.666;2023-01-26T09:21:18;69.15;;;27.75;;
55216;SDS011;41086;46.736;15.666;2023-01-26T09:23:46;83.05;;;28.60;;
55216;SDS011;41086;46.736;15.666;2023-01-26T09:26:12;61.33;;;26.48;;
55216;SDS011;41086;46.736;15.666;2023-01-26T09:28:39;63.08;;;26.85;;
55216;SDS011;41086;46.736;15.666;2023-01-26T09:31:07;57.65;;;26.45;;
55216;SDS011;41086;46.736;15.666;2023-01-26T09:33:36;63.42;;;25.33;;
55216;SDS011;41086;46.736;15.666;2023-01-26T09:36:04;62.35;;;26.40;;
55216;SDS011;41086;46.736;15.666;2023-01-26T09:38:32;58.97;;;25.70;;
55216;SDS011;41086;46.736;15.666;2023-01-26T09:43:51;57.25;;;25.05;;
55216;SDS011;41086;46.736;15.666;2023-01-26T09:49:07;55.40;;;23.95;;
55216;SDS011;41086;46.736;15.666;2023-01-26T09:52:02;58.55;;;24.48;;
55216;SDS011;41086;46.736;15.666;2023-01-26T09:54:37;54.05;;;23.25;;
55216;SDS011;41086;46.736;15.666;2023-01-26T09:57:18;45.30;;;21.13;;
55216;SDS011;41086;46.736;15.666;2023-01-26T09:59:56;58.17;;;23.48;;
55216;SDS011;41086;46.736;15.666;2023-01-26T10:05:13;52.92;;;22.88;;
55216;SDS011;41086;46.736;15.666;2023-01-26T10:08:07;52.95;;;24.13;;
55216;SDS011;41086;46.736;15.666;2023-01-26T10:10:38;55.25;;;23.55;;
55216;SDS011;41086;46.736;15.666;2023-01-26T10:13:11;51.67;;;21.50;;
55216;SDS011;41086;46.736;15.666;2023-01-26T10:15:40;57.88;;;22.38;;
55216;SDS011;41086;46.736;15.666;2023-01-26T10:18:27;50.10;;;23.50;;
55216;SDS011;41086;46.736;15.666;2023-01-26T10:20:57;53.10;;;24.27;;
55216;SDS011;41086;46.736;15.666;2023-01-26T10:23:28;56.97;;;24.23;;
55216;SDS011;41086;46.736;15.666;2023-01-26T10:28:38;46.40;;;21.80;;
55216;SDS011;41086;46.736;15.666;2023-01-26T10:31:26;47.83;;;21.60;;
55216;SDS011;41086;46.736;15.666;2023-01-26T10:33:56;50.97;;;22.67;;
55216;SDS011;41086;46.736;15.666;2023-01-26T10:36:28;54.13;;;21.63;;
55216;SDS011;41086;46.736;15.666;2023-01-26T10:39:02;46.83;;;20.58;;
55216;SDS011;41086;46.736;15.666;2023-01-26T10:41:31;42.40;;;21.40;;
55216;SDS011;41086;46.736;15.666;2023-01-26T10:43:59;52.17;;;22.42;;
55216;SDS011;41086;46.736;15.666;2023-01-26T10:46:46;51.33;;;21.75;;
55216;SDS011;41086;46.736;15.666;2023-01-26T10:49:29;45.20;;;20.05;;
55216;SDS011;41086;46.736;15.666;2023-01-26T10:52:06;52.63;;;24.23;;
55216;SDS011;41086;46.736;15.666;2023-01-26T10:54:39;46.45;;;20.48;;
55216;SDS011;41086;46.736;15.666;2023-01-26T10:57:16;49.55;;;22.45;;
55216;SDS011;41086;46.736;15.666;2023-01-26T11:00:02;48.10;;;20.23;;
55216;SDS011;41086;46.736;15.666;2023-01-26T11:02:34;43.67;;;20.77;;
55216;SDS011;41086;46.736;15.666;2023-01-26T11:07:36;41.85;;;19.60;;
55216;SDS011;41086;46.736;15.666;2023-01-26T11:13:10;41.22;;;20.65;;
55216;SDS011;41086;46.736;15.666;2023-01-26T11:15:38;43.20;;;19.50;;
55216;SDS011;41086;46.736;15.666;2023-01-26T11:21:12;39.58;;;18.45;;
55216;SDS011;41086;46.736;15.666;2023-01-26T11:23:56;40.72;;;19.20;;
55216;SDS011;41086;46.736;15.666;2023-01-26T11:40:13;34.65;;;15.75;;
55216;SDS011;41086;46.736;15.666;2023-01-26T11:45:35;36.17;;;17.52;;
55216;SDS011;41086;46.736;15.666;2023-01-26T11:53:58;32.63;;;15.82;;
55216;SDS011;41086;46.736;15.666;2023-01-26T11:59:16;32.88;;;16.30;;
55216;SDS011;41086;46.736;15.666;2023-01-26T12:01:50;31.23;;;14.88;;
55216;SDS011;41086;46.736;15.666;2023-01-26T12:04:45;34.97;;;15.80;;
55216;SDS011;41086;46.736;15.666;2023-01-26T12:10:17;35.03;;;15.93;;
55216;SDS011;41086;46.736;15.666;2023-01-26T12:13:07;29.52;;;14.75;;
55216;SDS011;41086;46.736;15.666;2023-01-26T12:15:56;31.73;;;14.82;;
55216;SDS011;41086;46.736;15.666;2023-01-26T12:18:46;31.00;;;15.48;;
55216;SDS011;41086;46.736;15.666;2023-01-26T12:21:37;34.53;;;17.30;;
55216;SDS011;41086;46.736;15.666;2023-01-26T12:24:11;31.05;;;15.20;;
55216;SDS011;41086;46.736;15.666;2023-01-26T12:27:02;31.58;;;15.63;;
55216;SDS011;41086;46.736;15.666;2023-01-26T12:29:45;28.95;;;14.90;;
55216;SDS011;41086;46.736;15.666;2023-01-26T12:32:36;34.83;;;15.60;;
55216;SDS011;41086;46.736;15.666;2023-01-26T12:35:03;32.10;;;15.43;;
55216;SDS011;41086;46.736;15.666;2023-01-26T12:43:54;27.90;;;14.73;;
55216;SDS011;41086;46.736;15.666;2023-01-26T12:46:40;28.97;;;15.13;;
55216;SDS011;41086;46.736;15.666;2023-01-26T12:49:34;31.55;;;15.95;;
55216;SDS011;41086;46.736;15.666;2023-01-26T12:52:25;28.20;;;15.02;;
55216;SDS011;41086;46.736;15.666;2023-01-26T12:55:19;30.83;;;15.40;;
55216;SDS011;41086;46.736;15.666;2023-01-26T12:58:02;26.83;;;15.57;;
55216;SDS011;41086;46.736;15.666;2023-01-26T13:00:38;30.20;;;14.75;;
55216;SDS011;41086;46.736;15.666;2023-01-26T13:05:55;26.48;;;13.25;;
55216;SDS011;41086;46.736;15.666;2023-01-26T13:10:59;28.15;;;15.02;;
55216;SDS011;41086;46.736;15.666;2023-01-26T13:13:28;26.77;;;13.43;;
55216;SDS011;41086;46.736;15.666;2023-01-26T13:18:47;27.90;;;13.90;;
55216;SDS011;41086;46.736;15.666;2023-01-26T13:31:51;25.65;;;12.73;;
55216;SDS011;41086;46.736;15.666;2023-01-26T13:34:25;29.50;;;14.77;;
55216;SDS011;41086;46.736;15.666;2023-01-26T13:36:55;24.33;;;13.65;;
55216;SDS011;41086;46.736;15.666;2023-01-26T13:39:36;28.08;;;14.85;;
55216;SDS011;41086;46.736;15.666;2023-01-26T13:42:15;28.23;;;14.98;;
55216;SDS011;41086;46.736;15.666;2023-01-26T13:44:52;31.63;;;15.25;;
55216;SDS011;41086;46.736;15.666;2023-01-26T13:47:29;32.67;;;16.50;;
55216;SDS011;41086;46.736;15.666;2023-01-26T13:50:20;29.65;;;14.27;;
55216;SDS011;41086;46.736;15.666;2023-01-26T13:52:48;26.65;;;14.63;;
55216;SDS011;41086;46.736;15.666;2023-01-26T13:55:36;26.08;;;14.20;;
55216;SDS011;41086;46.736;15.666;2023-01-26T13:58:11;30.38;;;14.77;;
55216;SDS011;41086;46.736;15.666;2023-01-26T14:00:56;29.20;;;14.48;;
55216;SDS011;41086;46.736;15.666;2023-01-26T14:03:36;29.50;;;13.30;;
55216;SDS011;41086;46.736;15.666;2023-01-26T14:06:08;23.65;;;12.13;;
55216;SDS011;41086;46.736;15.666;2023-01-26T14:08:36;26.75;;;14.30;;
55216;SDS011;41086;46.736;15.666;2023-01-26T14:11:13;28.48;;;14.52;;
55216;SDS011;41086;46.736;15.666;2023-01-26T14:13:45;25.20;;;13.75;;
55216;SDS011;41086;46.736;15.666;2023-01-26T14:16:21;31.90;;;14.65;;
55216;SDS011;41086;46.736;15.666;2023-01-26T14:19:01;29.00;;;14.93;;
55216;SDS011;41086;46.736;15.666;2023-01-26T14:21:52;28.38;;;14.43;;
55216;SDS011;41086;46.736;15.666;2023-01-26T14:26:55;25.58;;;13.75;;
55216;SDS011;41086;46.736;15.666;2023-01-26T14:31:51;28.35;;;12.75;;
55216;SDS011;41086;46.736;15.666;2023-01-26T14:34:21;27.67;;;13.85;;
55216;SDS011;41086;46.736;15.666;2023-01-26T14:39:40;24.38;;;14.52;;
55216;SDS011;41086;46.736;15.666;2023-01-26T14:42:13;27.67;;;13.60;;
55216;SDS011;41086;46.736;15.666;2023-01-26T14:44:42;28.15;;;14.45;;
55216;SDS011;41086;46.736;15.666;2023-01-26T14:52:29;25.77;;;14.13;;
55216;SDS011;41086;46.736;15.666;2023-01-26T14:55:10;27.40;;;14.30;;
55216;SDS011;41086;46.736;15.666;2023-01-26T14:57:44;38.40;;;15.25;;
55216;SDS011;41086;46.736;15.666;2023-01-26T15:00:45;26.67;;;13.75;;
55216;SDS011;41086;46.736;15.666;2023-01-26T15:03:05;30.38;;;14.90;;
55216;SDS011;41086;46.736;15.666;2023-01-26T15:05:39;29.17;;;14.68;;
55216;SDS011;41086;46.736;15.666;2023-01-26T15:08:18;30.77;;;14.23;;
55216;SDS011;41086;46.736;15.666;2023-01-26T15:13:44;28.75;;;15.02;;
55216;SDS011;41086;46.736;15.666;2023-01-26T15:16:14;30.35;;;15.32;;
55216;SDS011;41086;46.736;15.666;2023-01-26T15:18:43;28.33;;;13.77;;
55216;SDS011;41086;46.736;15.666;2023-01-26T15:21:19;27.30;;;13.75;;
55216;SDS011;41086;46.736;15.666;2023-01-26T15:23:51;33.20;;;15.13;;
55216;SDS011;41086;46.736;15.666;2023-01-26T15:28:53;28.45;;;14.35;;
55216;SDS011;41086;46.736;15.666;2023-01-26T15:31:24;31.52;;;14.93;;
55216;SDS011;41086;46.736;15.666;2023-01-26T15:33:56;29.80;;;16.25;;
55216;SDS011;41086;46.736;15.666;2023-01-26T15:36:30;28.52;;;14.45;;
55216;SDS011;41086;46.736;15.666;2023-01-26T15:39:13;33.80;;;15.45;;
55216;SDS011;41086;46.736;15.666;2023-01-26T15:41:41;31.88;;;16.20;;
55216;SDS011;41086;46.736;15.666;2023-01-26T15:44:14;28.25;;;14.63;;
55216;SDS011;41086;46.736;15.666;2023-01-26T15:46:42;31.67;;;16.15;;
55216;SDS011;41086;46.736;15.666;2023-01-26T15:49:10;32.53;;;15.77;;
55216;SDS011;41086;46.736;15.666;2023-01-26T15:51:38;32.63;;;16.85;;
55216;SDS011;41086;46.736;15.666;2023-01-26T15:54:05;34.15;;;18.42;;
55216;SDS011;41086;46.736;15.666;2023-01-26T15:56:32;35.53;;;17.60;;
55216;SDS011;41086;46.736;15.666;2023-01-26T15:58:59;32.40;;;16.52;;
55216;SDS011;41086;46.736;15.666;2023-01-26T16:01:26;33.80;;;16.23;;
55216;SDS011;41086;46.736;15.666;2023-01-26T16:03:52;29.80;;;15.68;;
55216;SDS011;41086;46.736;15.666;2023-01-26T16:06:21;34.05;;;17.42;;
55216;SDS011;41086;46.736;15.666;2023-01-26T16:08:51;32.40;;;16.60;;
55216;SDS011;41086;46.736;15.666;2023-01-26T16:11:19;33.40;;;15.93;;
55216;SDS011;41086;46.736;15.666;2023-01-26T16:13:47;32.10;;;15.30;;
55216;SDS011;41086;46.736;15.666;2023-01-26T16:16:28;34.35;;;15.65;;
55216;SDS011;41086;46.736;15.666;2023-01-26T16:18:55;32.72;;;16.55;;
55216;SDS011;41086;46.736;15.666;2023-01-26T16:21:25;46.85;;;22.88;;
55216;SDS011;41086;46.736;15.666;2023-01-26T16:23:56;64.35;;;34.10;;
55216;SDS011;41086;46.736;15.666;2023-01-26T16:26:23;45.92;;;25.15;;
55216;SDS011;41086;46.736;15.666;2023-01-26T16:28:51;39.58;;;18.52;;
55216;SDS011;41086;46.736;15.666;2023-01-26T16:33:48;146.23;;;74.82;;
55216;SDS011;41086;46.736;15.666;2023-01-26T16:36:19;399.08;;;228.40;;
55216;SDS011;41086;46.736;15.666;2023-01-26T16:38:46;112.32;;;72.47;;
55216;SDS011;41086;46.736;15.666;2023-01-26T16:41:23;47.17;;;25.38;;
55216;SDS011;41086;46.736;15.666;2023-01-26T16:43:53;47.83;;;24.05;;